Buoy 44906

sailwx.info

Track history (hours):
 
Tides and Currents Weather Stations Pressure Air Temp Water Temp Dewpoint Dewpoint Depression Visibility Wind Speed Wind Dir Waves Ship Positions

Drifting buoy 44906

Last reported at 2017-Feb-20 07:00 UTC. Time now 2017-Feb-20 08:45 UTC.
Position N 37°16' W 033°11'.

Water temperature 17.1 ° C

Date/timePositionNaut miles runAvg speedWind from/ knotsBaromVisibWave heightAir tempDewpointWater temp
2017-Feb-20 07:00N 37°16' W 033°11'1 0.6 17.1
2017-Feb-20 06:00N 37°15' W 033°11'0 0.5 17.1
2017-Feb-20 05:00N 37°15' W 033°12'0 0.0 17.1
2017-Feb-20 04:00N 37°15' W 033°12'0 0.0 17.1
2017-Feb-20 03:00N 37°15' W 033°12'1 0.2 17.1
2017-Feb-19 23:00N 37°15' W 033°11'2 1.9 17.2
2017-Feb-19 22:00N 37°15' W 033°13'2 1.6 17.2
2017-Feb-19 21:00N 37°16' W 033°11'0 0.0 17.2
2017-Feb-19 20:00N 37°16' W 033°11'1 1.1 17.2
2017-Feb-19 19:00N 37°15' W 033°13'0 0.0 17.2
2017-Feb-19 17:00N 37°15' W 033°13'0 0.0 17.2
2017-Feb-19 16:00N 37°15' W 033°13'1 0.8 17.2
2017-Feb-19 15:00N 37°16' W 033°13'0 0.2 17.2
2017-Feb-19 13:00N 37°16' W 033°13'1 0.8 17.1
2017-Feb-19 12:00N 37°16' W 033°13'0 0.0 17.1
2017-Feb-19 11:00N 37°16' W 033°13'0 0.0 17.1
2017-Feb-19 10:00N 37°16' W 033°13'2 1.6 17.1
2017-Feb-19 09:00N 37°16' W 033°15'0 0.0 17.1
2017-Feb-19 08:00N 37°16' W 033°15'0 0.0 17.1
2017-Feb-19 07:00N 37°16' W 033°15'1 0.8 17.2
2017-Feb-19 06:00N 37°15' W 033°16'0 0.0 17.2
2017-Feb-19 05:00N 37°15' W 033°16'1 1.0 17.2
2017-Feb-19 04:00N 37°15' W 033°14'0 0.0 17.2
2017-Feb-19 00:00N 37°15' W 033°14'0 0.0 17.2
2017-Feb-18 23:00N 37°15' W 033°14'2 1.5 17.2
2017-Feb-18 22:00N 37°16' W 033°16'1 0.8 17.2
2017-Feb-18 21:00N 37°16' W 033°15'0 0.0 17.2
2017-Feb-18 20:00N 37°16' W 033°15'0 0.0 17.2
2017-Feb-18 19:00N 37°16' W 033°15'0 0.0 17.2
2017-Feb-18 18:00N 37°16' W 033°15'1 0.8 17.3
2017-Feb-18 17:00N 37°15' W 033°16'0 0.5 17.3
2017-Feb-18 16:00N 37°15' W 033°16'0 0.0 17.3
2017-Feb-18 15:00N 37°15' W 033°16'1 0.3 17.2
2017-Feb-18 12:00N 37°15' W 033°15'1 0.8 17.1
2017-Feb-18 11:00N 37°16' W 033°16'0 0.5 17.1
2017-Feb-18 10:00N 37°16' W 033°16'0 0.0 17.1
2017-Feb-18 09:00N 37°16' W 033°16'1 1.0 17.1
2017-Feb-18 08:00N 37°16' W 033°17'0 0.0 17.1
2017-Feb-18 07:00N 37°16' W 033°17'1 0.8 17.1
2017-Feb-18 06:00N 37°15' W 033°18'1 1.1 17.1
2017-Feb-18 05:00N 37°16' W 033°17'1 1.1 17.1
2017-Feb-18 04:00N 37°15' W 033°18'0 0.0 17.1
2017-Feb-17 23:00N 37°15' W 033°18'0 0.5 17.1
2017-Feb-17 22:00N 37°15' W 033°17'0 0.0 17.1
2017-Feb-17 21:00N 37°15' W 033°17'1 0.6 17.1
2017-Feb-17 20:00N 37°16' W 033°17'0 0.0 17.1
2017-Feb-17 19:00N 37°16' W 033°17'1 0.8 17.2
2017-Feb-17 18:00N 37°15' W 033°18'1 1.0 17.2
2017-Feb-17 17:00N 37°15' W 033°19'0 0.0 17.2
2017-Feb-17 16:00N 37°15' W 033°19'0 0.0 17.2
2017-Feb-17 15:00N 37°15' W 033°19'1 0.5 17.2
2017-Feb-17 13:00N 37°15' W 033°18'0 0.0 17.1
2017-Feb-17 12:00N 37°15' W 033°18'0 0.0 17.1
2017-Feb-17 11:00N 37°15' W 033°18'1 1.0 17.1
2017-Feb-17 10:00N 37°15' W 033°19'1 0.8 17.1
2017-Feb-17 09:00N 37°16' W 033°20'0 0.5 17.1
2017-Feb-17 08:00N 37°16' W 033°19'0 0.0 17.1
2017-Feb-17 07:00N 37°16' W 033°19'1 0.6 17.1
2017-Feb-17 06:00N 37°15' W 033°19'1 1.0 17.1
2017-Feb-17 05:00N 37°15' W 033°20'0 0.5 17.1
2017-Feb-17 04:00N 37°15' W 033°21'1 0.2 17.1
2017-Feb-16 23:00N 37°16' W 033°20'0 0.0 17.1
2017-Feb-16 22:00N 37°16' W 033°20'0 0.0 17.1
2017-Feb-16 21:00N 37°16' W 033°20'1 1.0 17.1
2017-Feb-16 20:00N 37°16' W 033°19'1 1.1 17.1
2017-Feb-16 19:00N 37°15' W 033°20'1 0.8 17.1
2017-Feb-16 18:00N 37°16' W 033°21'0 0.0 17.2
2017-Feb-16 17:00N 37°16' W 033°21'0 0.0 17.2
2017-Feb-16 16:00N 37°16' W 033°21'0 0.0 17.2
2017-Feb-16 15:00N 37°16' W 033°21'0 0.0 17.1
2017-Feb-16 14:00N 37°16' W 033°21'0 0.5 17.1
2017-Feb-16 13:00N 37°16' W 033°22'0 0.0 17.1
2017-Feb-16 12:00N 37°16' W 033°22'0 0.5 17.1
2017-Feb-16 11:00N 37°16' W 033°21'1 1.1 17.1
2017-Feb-16 10:00N 37°16' W 033°22'0 0.0 17.1
2017-Feb-16 09:00N 37°16' W 033°22'0 0.0 17.1
2017-Feb-16 08:00N 37°16' W 033°22'2 2.3 17.1
2017-Feb-16 07:00N 37°17' W 033°20'3 2.7 17.1
2017-Feb-16 06:00N 37°16' W 033°23'0 0.0 17.1
2017-Feb-16 05:00N 37°16' W 033°23'1 0.3 17.1
2017-Feb-16 00:00N 37°17' W 033°23'0 0.0 17.1
2017-Feb-15 23:00N 37°17' W 033°23'1 1.1 17.1
2017-Feb-15 22:00N 37°17' W 033°25'1 1.1 17.1
2017-Feb-15 21:00N 37°17' W 033°26'1 1.0 17.1
2017-Feb-15 20:00N 37°17' W 033°25'2 1.5 17.1
2017-Feb-15 19:00N 37°16' W 033°26'1 1.1 17.1
2017-Feb-15 18:00N 37°17' W 033°27'0 0.0 17.1
2017-Feb-15 16:00N 37°17' W 033°27'1 0.2 17.0
2017-Feb-15 12:00N 37°16' W 033°26'1 1.3 17.0
2017-Feb-15 11:00N 37°17' W 033°27'2 1.5 17.0
2017-Feb-15 10:00N 37°16' W 033°28'0 0.5 16.9
2017-Feb-15 09:00N 37°16' W 033°29'0 0.0 16.9
2017-Feb-15 08:00N 37°16' W 033°29'0 0.5 16.9
2017-Feb-15 07:00N 37°16' W 033°29'0 0.5 16.9
2017-Feb-15 06:00N 37°16' W 033°30'0 0.0 16.9
2017-Feb-15 05:00N 37°16' W 033°30'1 1.1 16.9
2017-Feb-15 04:00N 37°17' W 033°31'1 0.1 16.9
2017-Feb-14 23:00N 37°16' W 033°31'1 1.1 17.0
2017-Feb-14 22:00N 37°16' W 033°30'2 2.0 17.0
2017-Feb-14 21:00N 37°15' W 033°32'1 0.8 17.1
2017-Feb-14 20:00N 37°16' W 033°33'1 0.8 17.2
2017-Feb-14 19:00N 37°15' W 033°32'1 1.4 17.3
2017-Feb-14 18:00N 37°15' W 033°34'2 1.9 17.6
2017-Feb-14 17:00N 37°15' W 033°32'2 1.9 17.8
2017-Feb-14 16:00N 37°15' W 033°34'1 0.4 17.6
2017-Feb-14 13:00N 37°14' W 033°33'0 0.5 17.0
2017-Feb-14 12:00N 37°14' W 033°34'0 0.0 16.9
2017-Feb-14 11:00N 37°14' W 033°34'1 1.1 16.9
2017-Feb-14 10:00N 37°15' W 033°35'1 0.6 16.9
2017-Feb-14 09:00N 37°14' W 033°35'0 0.0 16.9
2017-Feb-14 08:00N 37°14' W 033°35'1 0.8 16.9
2017-Feb-14 07:00N 37°15' W 033°34'2 1.6 16.9
2017-Feb-14 06:00N 37°16' W 033°32'4 3.6 16.9
2017-Feb-14 05:00N 37°14' W 033°37'0 0.0 16.9
2017-Feb-14 04:00N 37°14' W 033°37'1 0.2 16.9
2017-Feb-14 00:00N 37°14' W 033°37'0 0.0 16.9
2017-Feb-13 23:00N 37°14' W 033°37'1 0.8 16.9
2017-Feb-13 22:00N 37°14' W 033°37'0 0.0 16.9
2017-Feb-13 21:00N 37°14' W 033°37'0 0.5 16.9
2017-Feb-13 20:00N 37°14' W 033°37'1 1.1 16.9
2017-Feb-13 19:00N 37°14' W 033°38'1 0.8 16.9
2017-Feb-13 18:00N 37°14' W 033°38'0 0.0 16.9
2017-Feb-13 17:00N 37°14' W 033°38'1 0.8 16.9
2017-Feb-13 16:00N 37°14' W 033°39'0 0.5 16.9
2017-Feb-13 15:00N 37°14' W 033°40'1 1.0 16.9
2017-Feb-13 14:00N 37°14' W 033°38'1 0.5 16.9
2017-Feb-13 12:00N 37°14' W 033°40'1 1.0 16.9
2017-Feb-13 11:00N 37°14' W 033°38'2 1.9 16.9
2017-Feb-13 10:00N 37°15' W 033°40'0 0.0 16.9
2017-Feb-13 08:00N 37°15' W 033°40'0 0.5 16.9
2017-Feb-13 07:00N 37°15' W 033°41'0 0.0 16.9
2017-Feb-13 06:00N 37°15' W 033°41'2 1.9 16.9
2017-Feb-13 05:00N 37°14' W 033°43'1 1.3 16.9
2017-Feb-13 04:00N 37°15' W 033°43'1 1.3 16.9
2017-Feb-13 03:00N 37°14' W 033°43'1 0.2 16.9
2017-Feb-12 23:00N 37°14' W 033°44'0 0.0 17.0
2017-Feb-12 22:00N 37°14' W 033°44'1 1.0 17.1
2017-Feb-12 21:00N 37°14' W 033°43'1 0.6 17.1
2017-Feb-12 20:00N 37°14' W 033°43'1 1.1 17.2
2017-Feb-12 19:00N 37°14' W 033°44'1 0.6 17.3
2017-Feb-12 18:00N 37°14' W 033°44'0 0.0 17.3
2017-Feb-12 17:00N 37°14' W 033°44'1 1.0 17.6
2017-Feb-12 16:00N 37°14' W 033°45'0 0.0 17.6
2017-Feb-12 15:00N 37°14' W 033°45'1 0.4 17.7
2017-Feb-12 13:00N 37°14' W 033°46'1 0.6 17.1
2017-Feb-12 12:00N 37°13' W 033°46'2 1.5 16.9
2017-Feb-12 11:00N 37°14' W 033°47'0 0.0 16.9
2017-Feb-12 10:00N 37°14' W 033°47'0 0.0 16.9
2017-Feb-12 09:00N 37°14' W 033°47'0 0.0 16.8
2017-Feb-12 08:00N 37°14' W 033°47'2 1.5 16.8
2017-Feb-12 07:00N 37°13' W 033°48'0 0.0 16.8
2017-Feb-12 06:00N 37°13' W 033°48'0 0.0 16.8
2017-Feb-12 05:00N 37°13' W 033°48'0 0.5 16.7
2017-Feb-12 04:00N 37°13' W 033°49'0 0.5 16.8
2017-Feb-12 03:00N 37°13' W 033°48'1 0.2 16.9
2017-Feb-11 23:00N 37°14' W 033°47'1 1.0 16.9
2017-Feb-11 22:00N 37°14' W 033°49'0 0.0 16.9
2017-Feb-11 21:00N 37°14' W 033°49'0 0.5 16.9
2017-Feb-11 20:00N 37°14' W 033°49'0 0.0 16.9
2017-Feb-11 19:00N 37°14' W 033°49'1 0.6 16.9
2017-Feb-11 18:00N 37°14' W 033°49'1 1.1 16.9
2017-Feb-11 17:00N 37°15' W 033°50'0 0.0 16.9
2017-Feb-11 16:00N 37°15' W 033°50'0 0.0 16.9
2017-Feb-11 15:00N 37°15' W 033°50'1 0.5 16.9
2017-Feb-11 13:00N 37°15' W 033°52'0 0.2 16.9
2017-Feb-11 11:00N 37°15' W 033°51'0 0.0 16.9
2017-Feb-11 10:00N 37°15' W 033°51'1 0.8 16.9
2017-Feb-11 09:00N 37°16' W 033°52'1 1.3 16.9
2017-Feb-11 08:00N 37°14' W 033°52'1 1.3 16.9
2017-Feb-11 07:00N 37°16' W 033°52'0 0.0 16.9
2017-Feb-11 06:00N 37°16' W 033°52'1 1.0 16.9
2017-Feb-11 05:00N 37°16' W 033°53'1 0.8 16.9
2017-Feb-11 04:00N 37°16' W 033°52'1 0.6 16.9
2017-Feb-11 03:00N 37°16' W 033°52'1 0.2 16.9
2017-Feb-11 00:00N 37°16' W 033°52'1 0.6 16.9
2017-Feb-10 23:00N 37°17' W 033°52'0 0.0 16.9
2017-Feb-10 22:00N 37°17' W 033°52'0 0.0 16.9
2017-Feb-10 21:00N 37°17' W 033°52'0 0.0 16.9
2017-Feb-10 20:00N 37°17' W 033°52'1 1.1 16.9
2017-Feb-10 19:00N 37°16' W 033°53'1 0.8 17.0
2017-Feb-10 18:00N 37°17' W 033°53'0 0.5 17.0
2017-Feb-10 17:00N 37°17' W 033°53'0 0.0 17.0
2017-Feb-10 16:00N 37°17' W 033°53'0 0.0 16.9
2017-Feb-10 15:00N 37°17' W 033°53'1 0.4 16.9
2017-Feb-10 13:00N 37°17' W 033°54'0 0.0 16.9
2017-Feb-10 12:00N 37°17' W 033°54'0 0.0 16.9
2017-Feb-10 11:00N 37°17' W 033°54'0 0.5 16.9
2017-Feb-10 10:00N 37°17' W 033°55'1 1.1 16.9
2017-Feb-10 09:00N 37°18' W 033°56'2 1.6 16.9
2017-Feb-10 08:00N 37°19' W 033°54'0 0.0 16.9
2017-Feb-10 07:00N 37°19' W 033°54'   16.9
Track history (hours):
 
Tides and Currents Weather Stations Pressure Air Temp Water Temp Dewpoint Dewpoint Depression Visibility Wind Speed Wind Dir Waves Ship Positions

Drifting buoy 44906

Last reported at 2017-Feb-20 07:00 UTC. Time now 2017-Feb-20 08:45 UTC.
Position N 37°16' W 033°11'.

Water temperature 17.1 ° C

Date/timePositionNaut miles runAvg speedWind from/ knotsBaromVisibWave heightAir tempDewpointWater temp
2017-Feb-20 07:00N 37°16' W 033°11'1 0.6 17.1
2017-Feb-20 06:00N 37°15' W 033°11'0 0.5 17.1
2017-Feb-20 05:00N 37°15' W 033°12'0 0.0 17.1
2017-Feb-20 04:00N 37°15' W 033°12'0 0.0 17.1
2017-Feb-20 03:00N 37°15' W 033°12'1 0.2 17.1
2017-Feb-19 23:00N 37°15' W 033°11'2 1.9 17.2
2017-Feb-19 22:00N 37°15' W 033°13'2 1.6 17.2
2017-Feb-19 21:00N 37°16' W 033°11'0 0.0 17.2
2017-Feb-19 20:00N 37°16' W 033°11'1 1.1 17.2
2017-Feb-19 19:00N 37°15' W 033°13'0 0.0 17.2
2017-Feb-19 17:00N 37°15' W 033°13'0 0.0 17.2
2017-Feb-19 16:00N 37°15' W 033°13'1 0.8 17.2
2017-Feb-19 15:00N 37°16' W 033°13'0 0.2 17.2
2017-Feb-19 13:00N 37°16' W 033°13'1 0.8 17.1
2017-Feb-19 12:00N 37°16' W 033°13'0 0.0 17.1
2017-Feb-19 11:00N 37°16' W 033°13'0 0.0 17.1
2017-Feb-19 10:00N 37°16' W 033°13'2 1.6 17.1
2017-Feb-19 09:00N 37°16' W 033°15'0 0.0 17.1
2017-Feb-19 08:00N 37°16' W 033°15'0 0.0 17.1
2017-Feb-19 07:00N 37°16' W 033°15'1 0.8 17.2
2017-Feb-19 06:00N 37°15' W 033°16'0 0.0 17.2
2017-Feb-19 05:00N 37°15' W 033°16'1 1.0 17.2
2017-Feb-19 04:00N 37°15' W 033°14'0 0.0 17.2
2017-Feb-19 00:00N 37°15' W 033°14'0 0.0 17.2
2017-Feb-18 23:00N 37°15' W 033°14'2 1.5 17.2
2017-Feb-18 22:00N 37°16' W 033°16'1 0.8 17.2
2017-Feb-18 21:00N 37°16' W 033°15'0 0.0 17.2
2017-Feb-18 20:00N 37°16' W 033°15'0 0.0 17.2
2017-Feb-18 19:00N 37°16' W 033°15'0 0.0 17.2
2017-Feb-18 18:00N 37°16' W 033°15'1 0.8 17.3
2017-Feb-18 17:00N 37°15' W 033°16'0 0.5 17.3
2017-Feb-18 16:00N 37°15' W 033°16'0 0.0 17.3
2017-Feb-18 15:00N 37°15' W 033°16'1 0.3 17.2
2017-Feb-18 12:00N 37°15' W 033°15'1 0.8 17.1
2017-Feb-18 11:00N 37°16' W 033°16'0 0.5 17.1
2017-Feb-18 10:00N 37°16' W 033°16'0 0.0 17.1
2017-Feb-18 09:00N 37°16' W 033°16'1 1.0 17.1
2017-Feb-18 08:00N 37°16' W 033°17'0 0.0 17.1
2017-Feb-18 07:00N 37°16' W 033°17'1 0.8 17.1
2017-Feb-18 06:00N 37°15' W 033°18'1 1.1 17.1
2017-Feb-18 05:00N 37°16' W 033°17'1 1.1 17.1
2017-Feb-18 04:00N 37°15' W 033°18'0 0.0 17.1
2017-Feb-17 23:00N 37°15' W 033°18'0 0.5 17.1
2017-Feb-17 22:00N 37°15' W 033°17'0 0.0 17.1
2017-Feb-17 21:00N 37°15' W 033°17'1 0.6 17.1
2017-Feb-17 20:00N 37°16' W 033°17'0 0.0 17.1
2017-Feb-17 19:00N 37°16' W 033°17'1 0.8 17.2
2017-Feb-17 18:00N 37°15' W 033°18'1 1.0 17.2
2017-Feb-17 17:00N 37°15' W 033°19'0 0.0 17.2
2017-Feb-17 16:00N 37°15' W 033°19'0 0.0 17.2
2017-Feb-17 15:00N 37°15' W 033°19'1 0.5 17.2
2017-Feb-17 13:00N 37°15' W 033°18'0 0.0 17.1
2017-Feb-17 12:00N 37°15' W 033°18'0 0.0 17.1
2017-Feb-17 11:00N 37°15' W 033°18'1 1.0 17.1
2017-Feb-17 10:00N 37°15' W 033°19'1 0.8 17.1
2017-Feb-17 09:00N 37°16' W 033°20'0 0.5 17.1
2017-Feb-17 08:00N 37°16' W 033°19'0 0.0 17.1
2017-Feb-17 07:00N 37°16' W 033°19'1 0.6 17.1
2017-Feb-17 06:00N 37°15' W 033°19'1 1.0 17.1
2017-Feb-17 05:00N 37°15' W 033°20'0 0.5 17.1
2017-Feb-17 04:00N 37°15' W 033°21'1 0.2 17.1
2017-Feb-16 23:00N 37°16' W 033°20'0 0.0 17.1
2017-Feb-16 22:00N 37°16' W 033°20'0 0.0 17.1
2017-Feb-16 21:00N 37°16' W 033°20'1 1.0 17.1
2017-Feb-16 20:00N 37°16' W 033°19'1 1.1 17.1
2017-Feb-16 19:00N 37°15' W 033°20'1 0.8 17.1
2017-Feb-16 18:00N 37°16' W 033°21'0 0.0 17.2
2017-Feb-16 17:00N 37°16' W 033°21'0 0.0 17.2
2017-Feb-16 16:00N 37°16' W 033°21'0 0.0 17.2
2017-Feb-16 15:00N 37°16' W 033°21'0 0.0 17.1
2017-Feb-16 14:00N 37°16' W 033°21'0 0.5 17.1
2017-Feb-16 13:00N 37°16' W 033°22'0 0.0 17.1
2017-Feb-16 12:00N 37°16' W 033°22'0 0.5 17.1
2017-Feb-16 11:00N 37°16' W 033°21'1 1.1 17.1
2017-Feb-16 10:00N 37°16' W 033°22'0 0.0 17.1
2017-Feb-16 09:00N 37°16' W 033°22'0 0.0 17.1
2017-Feb-16 08:00N 37°16' W 033°22'2 2.3 17.1
2017-Feb-16 07:00N 37°17' W 033°20'3 2.7 17.1
2017-Feb-16 06:00N 37°16' W 033°23'0 0.0 17.1
2017-Feb-16 05:00N 37°16' W 033°23'1 0.3 17.1
2017-Feb-16 00:00N 37°17' W 033°23'0 0.0 17.1
2017-Feb-15 23:00N 37°17' W 033°23'1 1.1 17.1
2017-Feb-15 22:00N 37°17' W 033°25'1 1.1 17.1
2017-Feb-15 21:00N 37°17' W 033°26'1 1.0 17.1
2017-Feb-15 20:00N 37°17' W 033°25'2 1.5 17.1
2017-Feb-15 19:00N 37°16' W 033°26'1 1.1 17.1
2017-Feb-15 18:00N 37°17' W 033°27'0 0.0 17.1
2017-Feb-15 16:00N 37°17' W 033°27'1 0.2 17.0
2017-Feb-15 12:00N 37°16' W 033°26'1 1.3 17.0
2017-Feb-15 11:00N 37°17' W 033°27'2 1.5 17.0
2017-Feb-15 10:00N 37°16' W 033°28'0 0.5 16.9
2017-Feb-15 09:00N 37°16' W 033°29'0 0.0 16.9
2017-Feb-15 08:00N 37°16' W 033°29'0 0.5 16.9
2017-Feb-15 07:00N 37°16' W 033°29'0 0.5 16.9
2017-Feb-15 06:00N 37°16' W 033°30'0 0.0 16.9
2017-Feb-15 05:00N 37°16' W 033°30'1 1.1 16.9
2017-Feb-15 04:00N 37°17' W 033°31'1 0.1 16.9
2017-Feb-14 23:00N 37°16' W 033°31'1 1.1 17.0
2017-Feb-14 22:00N 37°16' W 033°30'2 2.0 17.0
2017-Feb-14 21:00N 37°15' W 033°32'1 0.8 17.1
2017-Feb-14 20:00N 37°16' W 033°33'1 0.8 17.2
2017-Feb-14 19:00N 37°15' W 033°32'1 1.4 17.3
2017-Feb-14 18:00N 37°15' W 033°34'2 1.9 17.6
2017-Feb-14 17:00N 37°15' W 033°32'2 1.9 17.8
2017-Feb-14 16:00N 37°15' W 033°34'1 0.4 17.6
2017-Feb-14 13:00N 37°14' W 033°33'0 0.5 17.0
2017-Feb-14 12:00N 37°14' W 033°34'0 0.0 16.9
2017-Feb-14 11:00N 37°14' W 033°34'1 1.1 16.9
2017-Feb-14 10:00N 37°15' W 033°35'1 0.6 16.9
2017-Feb-14 09:00N 37°14' W 033°35'0 0.0 16.9
2017-Feb-14 08:00N 37°14' W 033°35'1 0.8 16.9
2017-Feb-14 07:00N 37°15' W 033°34'2 1.6 16.9
2017-Feb-14 06:00N 37°16' W 033°32'4 3.6 16.9
2017-Feb-14 05:00N 37°14' W 033°37'0 0.0 16.9
2017-Feb-14 04:00N 37°14' W 033°37'1 0.2 16.9
2017-Feb-14 00:00N 37°14' W 033°37'0 0.0 16.9
2017-Feb-13 23:00N 37°14' W 033°37'1 0.8 16.9
2017-Feb-13 22:00N 37°14' W 033°37'0 0.0 16.9
2017-Feb-13 21:00N 37°14' W 033°37'0 0.5 16.9
2017-Feb-13 20:00N 37°14' W 033°37'1 1.1 16.9
2017-Feb-13 19:00N 37°14' W 033°38'1 0.8 16.9
2017-Feb-13 18:00N 37°14' W 033°38'0 0.0 16.9
2017-Feb-13 17:00N 37°14' W 033°38'1 0.8 16.9
2017-Feb-13 16:00N 37°14' W 033°39'0 0.5 16.9
2017-Feb-13 15:00N 37°14' W 033°40'1 1.0 16.9
2017-Feb-13 14:00N 37°14' W 033°38'1 0.5 16.9
2017-Feb-13 12:00N 37°14' W 033°40'1 1.0 16.9
2017-Feb-13 11:00N 37°14' W 033°38'2 1.9 16.9
2017-Feb-13 10:00N 37°15' W 033°40'0 0.0 16.9
2017-Feb-13 08:00N 37°15' W 033°40'0 0.5 16.9
2017-Feb-13 07:00N 37°15' W 033°41'0 0.0 16.9
2017-Feb-13 06:00N 37°15' W 033°41'2 1.9 16.9
2017-Feb-13 05:00N 37°14' W 033°43'1 1.3 16.9
2017-Feb-13 04:00N 37°15' W 033°43'1 1.3 16.9
2017-Feb-13 03:00N 37°14' W 033°43'1 0.2 16.9
2017-Feb-12 23:00N 37°14' W 033°44'0 0.0 17.0
2017-Feb-12 22:00N 37°14' W 033°44'1 1.0 17.1
2017-Feb-12 21:00N 37°14' W 033°43'1 0.6 17.1
2017-Feb-12 20:00N 37°14' W 033°43'1 1.1 17.2
2017-Feb-12 19:00N 37°14' W 033°44'1 0.6 17.3
2017-Feb-12 18:00N 37°14' W 033°44'0 0.0 17.3
2017-Feb-12 17:00N 37°14' W 033°44'1 1.0 17.6
2017-Feb-12 16:00N 37°14' W 033°45'0 0.0 17.6
2017-Feb-12 15:00N 37°14' W 033°45'1 0.4 17.7
2017-Feb-12 13:00N 37°14' W 033°46'1 0.6 17.1
2017-Feb-12 12:00N 37°13' W 033°46'2 1.5 16.9
2017-Feb-12 11:00N 37°14' W 033°47'0 0.0 16.9
2017-Feb-12 10:00N 37°14' W 033°47'0 0.0 16.9
2017-Feb-12 09:00N 37°14' W 033°47'0 0.0 16.8
2017-Feb-12 08:00N 37°14' W 033°47'2 1.5 16.8
2017-Feb-12 07:00N 37°13' W 033°48'0 0.0 16.8
2017-Feb-12 06:00N 37°13' W 033°48'0 0.0 16.8
2017-Feb-12 05:00N 37°13' W 033°48'0 0.5 16.7
2017-Feb-12 04:00N 37°13' W 033°49'0 0.5 16.8
2017-Feb-12 03:00N 37°13' W 033°48'1 0.2 16.9
2017-Feb-11 23:00N 37°14' W 033°47'1 1.0 16.9
2017-Feb-11 22:00N 37°14' W 033°49'0 0.0 16.9
2017-Feb-11 21:00N 37°14' W 033°49'0 0.5 16.9
2017-Feb-11 20:00N 37°14' W 033°49'0 0.0 16.9
2017-Feb-11 19:00N 37°14' W 033°49'1 0.6 16.9
2017-Feb-11 18:00N 37°14' W 033°49'1 1.1 16.9
2017-Feb-11 17:00N 37°15' W 033°50'0 0.0 16.9
2017-Feb-11 16:00N 37°15' W 033°50'0 0.0 16.9
2017-Feb-11 15:00N 37°15' W 033°50'1 0.5 16.9
2017-Feb-11 13:00N 37°15' W 033°52'0 0.2 16.9
2017-Feb-11 11:00N 37°15' W 033°51'0 0.0 16.9
2017-Feb-11 10:00N 37°15' W 033°51'1 0.8 16.9
2017-Feb-11 09:00N 37°16' W 033°52'1 1.3 16.9
2017-Feb-11 08:00N 37°14' W 033°52'1 1.3 16.9
2017-Feb-11 07:00N 37°16' W 033°52'0 0.0 16.9
2017-Feb-11 06:00N 37°16' W 033°52'1 1.0 16.9
2017-Feb-11 05:00N 37°16' W 033°53'1 0.8 16.9
2017-Feb-11 04:00N 37°16' W 033°52'1 0.6 16.9
2017-Feb-11 03:00N 37°16' W 033°52'1 0.2 16.9
2017-Feb-11 00:00N 37°16' W 033°52'1 0.6 16.9
2017-Feb-10 23:00N 37°17' W 033°52'0 0.0 16.9
2017-Feb-10 22:00N 37°17' W 033°52'0 0.0 16.9
2017-Feb-10 21:00N 37°17' W 033°52'0 0.0 16.9
2017-Feb-10 20:00N 37°17' W 033°52'1 1.1 16.9
2017-Feb-10 19:00N 37°16' W 033°53'1 0.8 17.0
2017-Feb-10 18:00N 37°17' W 033°53'0 0.5 17.0
2017-Feb-10 17:00N 37°17' W 033°53'0 0.0 17.0
2017-Feb-10 16:00N 37°17' W 033°53'0 0.0 16.9
2017-Feb-10 15:00N 37°17' W 033°53'1 0.4 16.9
2017-Feb-10 13:00N 37°17' W 033°54'0 0.0 16.9
2017-Feb-10 12:00N 37°17' W 033°54'0 0.0 16.9
2017-Feb-10 11:00N 37°17' W 033°54'0 0.5 16.9
2017-Feb-10 10:00N 37°17' W 033°55'1 1.1 16.9
2017-Feb-10 09:00N 37°18' W 033°56'2 1.6 16.9
2017-Feb-10 08:00N 37°19' W 033°54'0 0.0 16.9
2017-Feb-10 07:00N 37°19' W 033°54'   16.9

Dump ship's entire track history